Time;durP1;ratioP1;P1;durP2;ratioP2;P2;SDS_P1;SDS_P2;PMS_P1;PMS_P2;Temp;Humidity;BMP_temperature;BMP_pressure;BME280_temperature;BME280_humidity;BME280_pressure;Samples;Min_cycle;Max_cycle;Signal;HPM_P1;HPM_P2
2022/01/30 00:02:25;;;;;;;21.13;5.67;;;7.70;97.90;;;;;;5094556;28;20286;-76
2022/01/30 00:04:51;;;;;;;25.13;5.17;;;7.70;97.50;;;;;;5094570;28;20803;-79
2022/01/30 00:07:16;;;;;;;36.43;6.80;;;7.80;97.40;;;;;;5094649;28;20313;-76
2022/01/30 00:09:42;;;;;;;24.63;5.60;;;7.50;97.20;;;;;;5093384;28;20048;-76
2022/01/30 00:12:09;;;;;;;29.63;5.30;;;7.50;97.60;;;;;;5093128;28;20044;-77
2022/01/30 00:14:36;;;;;;;27.77;4.70;;;7.50;97.70;;;;;;5110314;28;20396;-77
2022/01/30 00:17:11;;;;;;;28.83;6.10;;;7.40;97.80;;;;;;5093985;28;20286;-77
2022/01/30 00:19:43;;;;;;;19.70;4.50;;;7.40;97.80;;;;;;5094260;28;20648;-77
2022/01/30 00:22:26;;;;;;;25.92;4.78;;;7.40;97.70;;;;;;5093990;28;20279;-77
2022/01/30 00:24:59;;;;;;;27.57;5.87;;;7.30;97.60;;;;;;5094175;28;20052;-77
2022/01/30 00:27:31;;;;;;;25.93;4.73;;;7.40;97.70;;;;;;5094280;28;20282;-77
2022/01/30 00:29:57;;;;;;;30.95;6.30;;;7.50;98.10;;;;;;5093790;28;20282;-78
2022/01/30 00:32:23;;;;;;;30.88;5.85;;;7.50;98.70;;;;;;5092842;28;20052;-77
2022/01/30 00:34:49;;;;;;;24.40;5.07;;;7.40;99.70;;;;;;5093638;28;20044;-76
2022/01/30 00:37:16;;;;;;;17.40;3.78;;;7.30;99.90;;;;;;5093543;28;20077;-77
2022/01/30 00:39:42;;;;;;;13.93;3.38;;;7.20;99.90;;;;;;5093752;28;20093;-77
2022/01/30 00:42:08;;;;;;;20.42;4.05;;;7.10;99.90;;;;;;5093185;28;20484;-77
2022/01/30 00:44:34;;;;;;;17.58;3.40;;;7.00;99.90;;;;;;5093769;28;20044;-77
2022/01/30 00:47:02;;;;;;;22.20;4.37;;;6.90;99.90;;;;;;5093346;28;20097;-77
2022/01/30 00:49:28;;;;;;;24.17;5.35;;;6.80;99.90;;;;;;5093644;28;20048;-76
2022/01/30 00:51:53;;;;;;;27.90;5.37;;;6.80;99.90;;;;;;5092567;28;20036;-76
2022/01/30 00:54:19;;;;;;;29.80;6.40;;;6.70;99.90;;;;;;5092941;28;20052;-76
2022/01/30 00:56:45;;;;;;;31.47;5.80;;;6.70;99.90;;;;;;5093535;28;20480;-76
2022/01/30 00:59:10;;;;;;;28.73;5.77;;;6.70;99.90;;;;;;5091847;28;20561;-77
2022/01/30 01:01:36;;;;;;;33.30;6.30;;;6.70;99.90;;;;;;5093434;28;20075;-76
2022/01/30 01:04:02;;;;;;;25.33;5.10;;;6.70;99.90;;;;;;5093079;28;20089;-77
2022/01/30 01:06:28;;;;;;;34.47;6.70;;;6.70;99.90;;;;;;5093280;28;20086;-76
2022/01/30 01:08:58;;;;;;;33.63;6.83;;;6.70;99.90;;;;;;5093091;28;20044;-77
2022/01/30 01:24:14;;;;;;;27.40;5.03;;;6.60;99.90;;;;;;5091587;28;20047;-76
2022/01/30 01:26:40;;;;;;;36.00;6.17;;;6.60;99.90;;;;;;5093072;28;20036;-76
2022/01/30 01:29:06;;;;;;;24.27;5.10;;;6.60;99.90;;;;;;5092892;28;20121;-76
2022/01/30 01:31:32;;;;;;;28.20;5.43;;;6.60;99.90;;;;;;5091528;28;20130;-76
2022/01/30 01:36:27;;;;;;;27.75;5.45;;;6.60;99.90;;;;;;5093071;28;20375;-76
2022/01/30 01:38:53;;;;;;;34.40;5.93;;;6.60;99.90;;;;;;5092862;28;20075;-76
2022/01/30 01:41:21;;;;;;;28.10;5.63;;;6.60;99.90;;;;;;5091497;28;20047;-76
2022/01/30 01:43:49;;;;;;;30.23;6.78;;;6.70;99.90;;;;;;5092949;28;20126;-76
2022/01/30 01:46:20;;;;;;;26.67;5.45;;;6.60;99.90;;;;;;5091438;28;20401;-76
2022/01/30 01:48:49;;;;;;;26.88;5.85;;;6.60;99.90;;;;;;5092946;28;20044;-76
2022/01/30 01:51:19;;;;;;;29.05;6.40;;;6.60;99.90;;;;;;5091574;28;20137;-76
2022/01/30 01:53:50;;;;;;;32.85;6.50;;;6.60;99.90;;;;;;5091445;28;20609;-76
2022/01/30 01:56:17;;;;;;;29.60;5.20;;;6.70;99.90;;;;;;5090948;28;20421;-76
2022/01/30 01:58:43;;;;;;;33.20;5.80;;;6.70;99.90;;;;;;5092723;28;20040;-76
2022/01/30 02:01:09;;;;;;;33.17;6.78;;;6.70;99.90;;;;;;5092513;28;20438;-77
2022/01/30 02:03:37;;;;;;;32.83;6.93;;;6.70;99.90;;;;;;5092891;28;20131;-76
2022/01/30 02:06:05;;;;;;;29.55;5.57;;;6.70;99.90;;;;;;5091301;28;20549;-76
2022/01/30 02:11:06;;;;;;;30.88;6.32;;;6.80;99.90;;;;;;5092646;28;20123;-76
2022/01/30 02:25:26;;;;;;;30.73;6.55;;;6.90;99.90;;;;;;5091478;28;20063;-77
2022/01/30 02:27:23;;;;;;;26.42;5.38;;;6.90;99.90;;;;;;5091699;28;20555;-77
2022/01/30 02:29:49;;;;;;;27.58;5.28;;;7.00;99.90;;;;;;5092616;28;20158;-77
2022/01/30 02:32:15;;;;;;;29.97;4.80;;;6.90;99.90;;;;;;5091135;28;20040;-77
2022/01/30 02:34:41;;;;;;;26.80;5.50;;;6.90;99.90;;;;;;5091468;28;20048;-77
2022/01/30 02:37:07;;;;;;;27.87;4.90;;;6.90;99.90;;;;;;5091239;28;20044;-76
2022/01/30 02:39:32;;;;;;;28.00;5.57;;;6.90;99.90;;;;;;5092231;28;20048;-77
2022/01/30 02:41:58;;;;;;;28.50;7.00;;;6.80;99.90;;;;;;5091425;28;20797;-77
2022/01/30 02:44:35;;;;;;;21.67;4.90;;;6.90;99.90;;;;;;5095469;28;20044;-77
2022/01/30 02:47:07;;;;;;;22.42;4.22;;;6.80;99.90;;;;;;5096064;28;20137;-76
2022/01/30 02:52:09;;;;;;;24.17;5.38;;;6.70;99.90;;;;;;5096040;28;20078;-76
2022/01/30 02:54:35;;;;;;;26.23;6.00;;;6.70;99.90;;;;;;5095586;28;20059;-76
2022/01/30 02:57:00;;;;;;;27.17;5.83;;;6.70;99.90;;;;;;5096016;28;20052;-76
2022/01/30 02:59:27;;;;;;;32.70;6.63;;;6.70;99.90;;;;;;5094202;28;20044;-76
2022/01/30 03:01:53;;;;;;;29.27;5.18;;;6.70;99.90;;;;;;5094799;28;20091;-76
2022/01/30 03:04:18;;;;;;;30.20;7.10;;;6.70;99.90;;;;;;5095404;28;20121;-76
2022/01/30 03:06:46;;;;;;;28.07;5.70;;;6.70;99.90;;;;;;5095902;28;20044;-77
2022/01/30 03:09:12;;;;;;;29.30;5.75;;;6.60;99.90;;;;;;5095258;28;20046;-77
2022/01/30 03:11:38;;;;;;;30.20;6.23;;;6.60;99.90;;;;;;5094589;28;20044;-76
2022/01/30 03:14:04;;;;;;;32.90;5.67;;;6.60;99.90;;;;;;5095586;28;20438;-76
2022/01/30 03:16:31;;;;;;;36.13;7.10;;;6.60;99.90;;;;;;5095176;28;20056;-76
2022/01/30 03:18:56;;;;;;;41.80;6.82;;;6.60;99.90;;;;;;5095367;28;20047;-76
2022/01/30 03:21:22;;;;;;;35.70;7.60;;;6.60;99.90;;;;;;5093987;28;20052;-77
2022/01/30 03:23:48;;;;;;;37.53;7.77;;;6.50;99.90;;;;;;5095354;28;20040;-76
2022/01/30 03:26:15;;;;;;;38.73;8.93;;;6.50;99.90;;;;;;5094991;28;20468;-77
2022/01/30 03:28:43;;;;;;;34.08;7.72;;;6.50;99.90;;;;;;5095192;28;20059;-76
2022/01/30 03:31:12;;;;;;;34.03;7.38;;;6.60;99.90;;;;;;5095223;28;20048;-76
2022/01/30 03:33:39;;;;;;;42.05;8.45;;;6.60;99.90;;;;;;5094852;28;20052;-76
2022/01/30 03:36:06;;;;;;;42.20;7.25;;;6.60;99.90;;;;;;5095060;28;20056;-76
2022/01/30 03:38:31;;;;;;;41.33;8.30;;;6.60;99.90;;;;;;5094734;28;20093;-76
2022/01/30 03:40:57;;;;;;;44.67;7.97;;;6.60;99.90;;;;;;5094834;28;20047;-76
2022/01/30 03:43:23;;;;;;;38.93;8.47;;;6.60;99.90;;;;;;5094651;28;20051;-76
2022/01/30 03:45:50;;;;;;;36.00;7.73;;;6.50;99.90;;;;;;5095082;28;20047;-76
2022/01/30 03:48:16;;;;;;;47.47;8.48;;;6.50;99.90;;;;;;5094610;28;20427;-79
2022/01/30 03:50:43;;;;;;;42.70;7.97;;;6.50;99.90;;;;;;5093924;28;20162;-76
2022/01/30 03:53:09;;;;;;;35.42;7.28;;;6.50;99.90;;;;;;5094230;28;20091;-76
2022/01/30 03:55:35;;;;;;;33.47;6.90;;;6.60;99.90;;;;;;5094236;28;20373;-76
2022/01/30 03:58:01;;;;;;;35.43;7.30;;;6.60;99.90;;;;;;5094619;28;20058;-76
2022/01/30 04:00:27;;;;;;;36.07;6.50;;;6.60;99.90;;;;;;5093080;28;20045;-76
2022/01/30 04:02:53;;;;;;;40.47;6.72;;;6.60;99.90;;;;;;5093620;28;20390;-76
2022/01/30 04:05:19;;;;;;;37.60;7.80;;;6.70;99.90;;;;;;5093204;28;20073;-76
2022/01/30 04:07:46;;;;;;;34.03;7.00;;;6.70;99.90;;;;;;5094432;28;20048;-76
2022/01/30 04:10:13;;;;;;;35.75;7.65;;;6.60;99.90;;;;;;5094260;28;20504;-76
2022/01/30 04:12:39;;;;;;;33.15;6.93;;;6.70;99.90;;;;;;5093768;28;20483;-76
2022/01/30 04:15:06;;;;;;;32.20;7.45;;;6.70;99.90;;;;;;5093990;28;20484;-76
2022/01/30 04:17:32;;;;;;;45.65;8.27;;;6.70;99.90;;;;;;5093994;28;20043;-76
2022/01/30 04:19:58;;;;;;;39.23;7.37;;;6.70;99.90;;;;;;5094100;28;20399;-76
2022/01/30 04:22:24;;;;;;;38.97;7.33;;;6.70;99.90;;;;;;5093834;28;20284;-76
2022/01/30 04:24:49;;;;;;;41.60;7.57;;;6.70;99.90;;;;;;5093125;28;20109;-76
2022/01/30 04:27:15;;;;;;;40.73;7.57;;;6.80;99.90;;;;;;5093135;28;20044;-77
2022/01/30 04:29:41;;;;;;;41.33;7.70;;;6.80;99.90;;;;;;5092477;28;20048;-77
2022/01/30 04:32:08;;;;;;;35.30;7.97;;;6.80;99.90;;;;;;5094194;28;20040;-77
2022/01/30 04:34:34;;;;;;;35.50;7.25;;;6.80;99.90;;;;;;5093656;28;20044;-77
2022/01/30 04:37:14;;;;;;;36.30;6.90;;;6.80;99.30;;;;;;5093966;28;20070;-77
2022/01/30 04:53:35;;;;;;;41.90;9.45;;;6.70;98.00;;;;;;5093613;28;20058;-77
2022/01/30 05:01:52;;;;;;;43.50;6.93;;;6.70;97.60;;;;;;5093431;28;20466;-77
2022/01/30 05:09:19;;;;;;;42.08;8.13;;;6.70;97.30;;;;;;5093447;28;20066;-77
2022/01/30 05:11:44;;;;;;;36.50;7.95;;;6.70;97.30;;;;;;5092976;28;20042;-77
2022/01/30 05:14:12;;;;;;;43.63;8.63;;;6.70;96.90;;;;;;5093369;28;20044;-77
2022/01/30 05:16:39;;;;;;;40.83;8.25;;;6.70;96.40;;;;;;5091833;28;20044;-77
2022/01/30 05:19:05;;;;;;;44.10;8.63;;;6.70;96.70;;;;;;5093335;28;20036;-77
2022/01/30 05:21:31;;;;;;;42.78;7.53;;;6.70;96.70;;;;;;5093179;28;20384;-77
2022/01/30 05:23:57;;;;;;;33.17;7.03;;;6.70;95.10;;;;;;5093101;28;20044;-77
2022/01/30 05:26:25;;;;;;;44.03;8.98;;;6.70;95.80;;;;;;5091957;28;20301;-77
2022/01/30 05:28:52;;;;;;;40.30;7.97;;;6.70;95.80;;;;;;5093001;28;20044;-77
2022/01/30 05:31:18;;;;;;;33.40;7.57;;;6.60;95.70;;;;;;5093138;28;20076;-77
2022/01/30 05:33:44;;;;;;;44.10;9.20;;;6.60;95.50;;;;;;5092762;28;20504;-77
2022/01/30 05:36:10;;;;;;;41.17;7.95;;;6.60;95.60;;;;;;5092691;28;20055;-77
2022/01/30 05:38:36;;;;;;;39.58;9.15;;;;;;;;;;5091553;28;20044;-77
2022/01/30 05:41:02;;;;;;;52.55;9.18;;;6.60;99.90;;;;;;5092850;28;20139;-77
2022/01/30 05:43:31;;;;;;;46.73;9.00;;;;;;;;;;5092806;28;20126;-80
2022/01/30 05:46:13;;;;;;;37.95;8.02;;;;;;;;;;5093119;28;20301;-77
2022/01/30 05:48:40;;;;;;;33.50;7.80;;;;;;;;;;5092748;28;20400;-77
2022/01/30 05:51:06;;;;;;;36.78;7.53;;;;;;;;;;5091626;28;20063;-77
2022/01/30 05:53:32;;;;;;;34.60;7.13;;;;;;;;;;5092603;28;20147;-77
2022/01/30 05:55:58;;;;;;;40.63;8.30;;;;;;;;;;5093223;28;20056;-77
2022/01/30 05:58:25;;;;;;;37.83;8.80;;;;;;;;;;5075088;28;20143;-77
2022/01/30 06:00:51;;;;;;;44.20;8.90;;;;;;;;;;5092494;28;20044;-77
2022/01/30 06:03:17;;;;;;;40.65;7.93;;;;;;;;;;5092823;28;20051;-76
2022/01/30 06:05:46;;;;;;;41.85;7.85;;;;;;;;;;5092568;28;20052;-77
2022/01/30 06:08:37;;;;;;;34.72;6.55;;;;;;;;;;5092744;28;20048;-76
2022/01/30 06:10:58;;;;;;;49.83;9.95;;;;;;;;;;5090649;28;20438;-76
2022/01/30 06:13:24;;;;;;;42.50;9.18;;;;;;;;;;5074670;28;20483;-76
2022/01/30 06:15:50;;;;;;;38.85;8.95;;;;;;;;;;5092450;28;20438;-76
2022/01/30 06:18:16;;;;;;;33.85;7.68;;;;;;;;;;5095107;28;20044;-76
2022/01/30 06:20:42;;;;;;;46.40;8.63;;;;;;;;;;5096227;28;20047;-76
2022/01/30 06:23:08;;;;;;;39.30;8.52;;;;;;;;;;5096186;28;20575;-76
2022/01/30 06:25:34;;;;;;;45.28;9.77;;;;;;;;;;5094719;28;20491;-77
2022/01/30 06:28:00;;;;;;;40.13;9.38;;;;;;;;;;5096755;28;20050;-77
2022/01/30 06:30:27;;;;;;;44.95;9.50;;;;;;;;;;5095573;28;20051;-77
2022/01/30 06:32:54;;;;;;;47.45;8.65;;;;;;;;;;5096064;28;20238;-77
2022/01/30 06:35:20;;;;;;;41.10;7.80;;;;;;;;;;5095570;28;20052;-77
2022/01/30 06:37:46;;;;;;;45.50;9.18;;;;;;;;;;5078049;28;20052;-76
2022/01/30 06:40:12;;;;;;;43.42;9.27;;;;;;;;;;5096077;28;20086;-76
2022/01/30 06:42:39;;;;;;;43.50;7.80;;;;;;;;;;5078207;28;20052;-77
2022/01/30 06:45:05;;;;;;;47.78;8.57;;;;;;;;;;5096132;28;20055;-76
2022/01/30 06:47:31;;;;;;;43.00;8.30;;;;;;;;;;5095133;28;20138;-76
2022/01/30 06:49:57;;;;;;;46.40;8.35;;;;;;;;;;5095743;28;20040;-77
2022/01/30 06:52:23;;;;;;;42.40;9.02;;;;;;;;;;5096019;28;20059;-77
2022/01/30 06:54:49;;;;;;;54.63;11.15;;;;;;;;;;5094361;28;20060;-77
2022/01/30 06:57:16;;;;;;;43.75;9.18;;;;;;;;;;5095276;28;20047;-77
2022/01/30 06:59:42;;;;;;;38.10;8.98;;;;;;;;;;5095438;28;20070;-76
2022/01/30 07:02:09;;;;;;;43.30;9.00;;;;;;;;;;5095769;28;20048;-77
2022/01/30 07:04:35;;;;;;;42.20;7.90;;;;;;;;;;5095790;28;20047;-76
2022/01/30 07:07:03;;;;;;;50.92;10.52;;;;;;;;;;5095269;28;20083;-77
2022/01/30 07:09:30;;;;;;;44.25;7.72;;;;;;;;;;5095673;28;20044;-77
2022/01/30 07:11:56;;;;;;;36.53;8.20;;;6.70;99.90;;;;;;5095278;28;20121;-76
2022/01/30 07:14:22;;;;;;;37.87;7.97;;;;;;;;;;5095276;28;20301;-76
2022/01/30 07:16:48;;;;;;;46.10;8.60;;;;;;;;;;5095164;28;20044;-77
2022/01/30 07:19:14;;;;;;;39.20;8.85;;;;;;;;;;5095098;28;20403;-76
2022/01/30 07:21:40;;;;;;;46.45;9.13;;;;;;;;;;5095109;28;20136;-77
2022/01/30 07:24:06;;;;;;;38.83;8.23;;;6.70;99.90;;;;;;5095308;28;20040;-76
2022/01/30 07:26:32;;;;;;;39.20;8.37;;;6.70;99.90;;;;;;5095405;28;20039;-77
2022/01/30 07:28:59;;;;;;;36.30;8.35;;;6.70;99.90;;;;;;5094122;28;20347;-77
2022/01/30 07:31:25;;;;;;;42.50;7.95;;;6.80;99.90;;;;;;5095213;28;20050;-77
2022/01/30 07:33:51;;;;;;;39.80;8.00;;;;;;;;;;5094903;28;20044;-77
2022/01/30 07:36:17;;;;;;;42.42;8.20;;;;;;;;;;5094188;28;20052;-77
2022/01/30 07:38:43;;;;;;;43.70;9.55;;;;;;;;;;5094774;28;20043;-77
2022/01/30 07:41:10;;;;;;;43.15;8.05;;;;;;;;;;5094052;28;20048;-77
2022/01/30 07:43:36;;;;;;;49.70;9.05;;;;;;;;;;5095075;28;20076;-77
2022/01/30 07:46:04;;;;;;;49.63;9.32;;;;;;;;;;5094608;28;20096;-77
2022/01/30 07:48:30;;;;;;;42.67;7.78;;;;;;;;;;5095097;28;20104;-76
2022/01/30 07:50:56;;;;;;;41.15;8.40;;;;;;;;;;5094617;28;20044;-77
2022/01/30 07:53:22;;;;;;;49.67;9.23;;;;;;;;;;5094958;28;20050;-76
2022/01/30 07:55:48;;;;;;;50.15;10.38;;;;;;;;;;5094407;28;20064;-77
2022/01/30 07:58:14;;;;;;;44.03;9.23;;;;;;;;;;5093832;28;20071;-76
2022/01/30 08:00:40;;;;;;;46.17;10.32;;;;;;;;;;5094549;28;20090;-76
2022/01/30 08:03:06;;;;;;;53.90;9.95;;;;;;;;;;5094048;28;20412;-76
2022/01/30 08:05:32;;;;;;;49.72;9.63;;;;;;;;;;5093402;28;20059;-76
2022/01/30 08:07:58;;;;;;;46.03;8.48;;;;;;;;;;5092996;28;20044;-76
2022/01/30 08:10:25;;;;;;;43.83;9.05;;;;;;;;;;5093498;28;20063;-76
2022/01/30 08:12:51;;;;;;;53.67;9.85;;;;;;;;;;5094084;28;20099;-76
2022/01/30 08:15:17;;;;;;;38.08;7.63;;;;;;;;;;5094376;28;20051;-75
2022/01/30 08:17:43;;;;;;;41.95;9.45;;;;;;;;;;5094328;28;20086;-76
2022/01/30 08:20:09;;;;;;;36.95;7.60;;;;;;;;;;5093553;28;20537;-75
2022/01/30 08:22:48;;;;;;;40.03;9.10;;;;;;;;;;5094188;28;20048;-76
2022/01/30 08:25:15;;;;;;;47.58;7.70;;;;;;;;;;5094456;28;20048;-75
2022/01/30 08:27:41;;;;;;;42.38;8.77;;;;;;;;;;5094250;28;20048;-73
2022/01/30 08:30:07;;;;;;;41.70;8.27;;;;;;;;;;5093821;28;20090;-74
2022/01/30 08:32:37;;;;;;;36.05;7.82;;;;;;;;;;5096035;28;20052;-73
2022/01/30 08:35:04;;;;;;;40.72;8.23;;;;;;;;;;5093646;28;20047;-74
2022/01/30 08:37:30;;;;;;;37.17;7.03;;;;;;;;;;5094036;28;20048;-74
2022/01/30 08:39:56;;;;;;;40.47;8.05;;;;;;;;;;5093167;28;20133;-74
2022/01/30 08:42:22;;;;;;;41.10;8.15;;;;;;;;;;5093749;28;20056;-74
2022/01/30 08:44:48;;;;;;;43.75;7.90;;;;;;;;;;5093417;28;20048;-78
2022/01/30 08:47:14;;;;;;;40.15;7.78;;;;;;;;;;5093688;28;20048;-74
2022/01/30 08:49:40;;;;;;;39.78;8.10;;;;;;;;;;5092304;28;20056;-74
2022/01/30 08:52:07;;;;;;;33.97;7.28;;;;;;;;;;5093258;28;20045;-74
2022/01/30 08:54:33;;;;;;;37.47;7.05;;;;;;;;;;5093285;28;20058;-75
2022/01/30 08:56:59;;;;;;;38.08;7.93;;;;;;;;;;5093322;28;20052;-74
2022/01/30 08:59:25;;;;;;;41.60;7.97;;;;;;;;;;5093374;28;20048;-74
2022/01/30 09:01:51;;;;;;;34.22;8.07;;;;;;;;;;5092141;28;20048;-75
2022/01/30 09:04:17;;;;;;;42.58;8.82;;;;;;;;;;5093050;28;20609;-74
2022/01/30 09:06:43;;;;;;;43.88;8.77;;;;;;;;;;5093438;28;20095;-74
2022/01/30 09:09:09;;;;;;;34.28;8.85;;;;;;;;;;5093081;28;20361;-74
2022/01/30 09:11:36;;;;;;;41.33;7.65;;;;;;;;;;5093518;28;20040;-74
2022/01/30 09:14:03;;;;;;;40.60;8.40;;;;;;;;;;5091748;28;20135;-74
2022/01/30 09:16:29;;;;;;;42.50;8.07;;;;;;;;;;5092276;28;20134;-74
2022/01/30 09:18:56;;;;;;;37.15;8.38;;;;;;;;;;5091687;28;20110;-74
2022/01/30 09:21:22;;;;;;;40.72;8.80;;;;;;;;;;5093251;28;20052;-74
2022/01/30 09:23:48;;;;;;;44.60;8.10;;;;;;;;;;5093154;28;20051;-74
2022/01/30 09:26:14;;;;;;;36.15;8.43;;;;;;;;;;5091889;28;20048;-74
2022/01/30 09:28:40;;;;;;;51.35;9.85;;;;;;;;;;5093062;28;20055;-73
2022/01/30 09:31:06;;;;;;;34.40;7.78;;;;;;;;;;5092757;28;20047;-74
2022/01/30 09:33:32;;;;;;;50.67;9.48;;;;;;;;;;5091649;28;20079;-74
2022/01/30 09:35:58;;;;;;;45.08;8.90;;;7.10;99.10;;;;;;5092574;28;20048;-74
2022/01/30 09:38:24;;;;;;;51.70;11.10;;;7.20;91.60;;;;;;5092961;28;20105;-74
2022/01/30 09:40:56;;;;;;;44.60;9.13;;;7.20;88.10;;;;;;5092840;28;20151;-74
2022/01/30 09:43:22;;;;;;;48.30;8.35;;;7.30;95.40;;;;;;5059104;28;20110;-74
2022/01/30 09:45:48;;;;;;;38.92;8.95;;;7.40;94.70;;;;;;5092671;28;20558;-74
2022/01/30 09:48:16;;;;;;;42.92;8.80;;;7.60;92.60;;;;;;5092896;28;20397;-74
2022/01/30 09:50:42;;;;;;;43.03;8.57;;;;;;;;;;5091707;28;20043;-74
2022/01/30 09:53:09;;;;;;;49.97;9.70;;;;;;;;;;5096034;28;20131;-72
2022/01/30 09:55:36;;;;;;;40.75;9.05;;;;;;;;;;5099037;28;20051;-72
2022/01/30 09:58:04;;;;;;;48.17;10.27;;;;;;;;;;5096312;28;20572;-72
2022/01/30 10:00:30;;;;;;;48.22;9.05;;;;;;;;;;5096842;28;20040;-71
2022/01/30 10:02:56;;;;;;;42.05;9.15;;;;;;;;;;5095522;28;20126;-78
2022/01/30 10:05:22;;;;;;;45.72;8.98;;;;;;;;;;5095627;28;20048;-72
2022/01/30 10:07:52;;;;;;;44.33;9.20;;;;;;;;;;5096810;28;20044;-72
2022/01/30 10:10:21;;;;;;;44.33;8.02;;;;;;;;;;5079025;28;20109;-72
2022/01/30 10:12:59;;;;;;;43.15;8.70;;;;;;;;;;5096861;28;20044;-72
2022/01/30 10:15:25;;;;;;;40.08;8.55;;;;;;;;;;5096755;28;20139;-72
2022/01/30 10:17:52;;;;;;;43.47;9.07;;;;;;;;;;5096752;28;20079;-71
2022/01/30 10:20:19;;;;;;;37.05;7.72;;;;;;;;;;5096408;28;20044;-72
2022/01/30 10:22:49;;;;;;;40.70;8.10;;;;;;;;;;5096688;28;20412;-72
2022/01/30 10:25:20;;;;;;;41.15;7.97;;;7.50;84.30;;;;;;5096319;28;20052;-72
2022/01/30 10:27:46;;;;;;;41.13;7.20;;;7.60;85.00;;;;;;5096487;28;20040;-72
2022/01/30 10:30:18;;;;;;;33.47;7.68;;;7.60;85.20;;;;;;5095102;28;20048;-73
2022/01/30 10:32:54;;;;;;;35.80;7.28;;;7.60;84.60;;;;;;5095507;28;20052;-73
2022/01/30 10:35:20;;;;;;;33.35;7.35;;;7.60;83.30;;;;;;5096030;28;20056;-73
2022/01/30 10:37:46;;;;;;;41.73;7.53;;;7.60;84.10;;;;;;5096351;28;20073;-73
2022/01/30 10:40:17;;;;;;;38.28;8.73;;;7.60;84.10;;;;;;5095967;28;20052;-82
2022/01/30 10:42:48;;;;;;;47.83;9.52;;;7.60;84.30;;;;;;5095172;28;20484;-78
2022/01/30 10:45:31;;;;;;;37.35;7.88;;;7.60;84.30;;;;;;5096075;28;20083;-78
2022/01/30 10:48:10;;;;;;;39.28;8.25;;;7.60;82.70;;;;;;5095109;28;20476;-78
2022/01/30 10:50:43;;;;;;;34.90;8.00;;;7.60;83.90;;;;;;5096554;28;20166;-81
2022/01/30 10:53:16;;;;;;;41.25;8.95;;;7.50;82.90;;;;;;5096481;28;20399;-84
2022/01/30 10:55:44;;;;;;;42.70;8.75;;;7.40;84.40;;;;;;5096321;28;20056;-84
2022/01/30 10:58:16;;;;;;;37.00;8.63;;;7.30;84.70;;;;;;5095939;28;20058;-82
2022/01/30 11:00:42;;;;;;;40.75;7.90;;;7.30;84.00;;;;;;5095916;28;20066;-82
2022/01/30 11:03:09;;;;;;;42.43;7.73;;;7.30;84.20;;;;;;5093145;28;20045;-81
2022/01/30 11:05:58;;;;;;;36.78;7.78;;;7.30;83.90;;;;;;5096021;28;20080;-81
2022/01/30 11:08:25;;;;;;;39.15;7.63;;;7.30;83.30;;;;;;5094586;28;20052;-78
2022/01/30 11:11:32;;;;;;;35.05;6.25;;;7.30;82.70;;;;;;5094517;28;20040;-79
2022/01/30 11:19:13;;;;;;;34.28;6.50;;;7.30;81.00;;;;;;5094269;28;20059;-79
2022/01/30 11:21:40;;;;;;;33.20;6.45;;;7.30;80.40;;;;;;5095492;28;20055;-77
2022/01/30 11:24:07;;;;;;;36.35;8.07;;;7.30;80.90;;;;;;5095201;28;20497;-83
2022/01/30 11:26:33;;;;;;;32.92;6.53;;;7.30;81.40;;;;;;5095664;28;20091;-81
2022/01/30 11:29:00;;;;;;;46.17;8.53;;;7.30;80.50;;;;;;5095402;28;20071;-78
2022/01/30 11:31:26;;;;;;;37.90;8.15;;;7.40;81.80;;;;;;5095019;28;20279;-79
2022/01/30 11:33:55;;;;;;;37.67;7.63;;;7.40;80.10;;;;;;5095623;28;20097;-74
2022/01/30 11:36:23;;;;;;;38.25;6.95;;;7.40;80.50;;;;;;5094926;28;20137;-73
2022/01/30 11:38:49;;;;;;;36.08;7.18;;;7.40;80.10;;;;;;5094822;28;20119;-73
2022/01/30 11:41:20;;;;;;;33.17;6.95;;;7.50;79.40;;;;;;5076335;28;20487;-73
2022/01/30 11:44:20;;;;;;;36.58;6.97;;;7.50;79.20;;;;;;5095086;28;20040;-73
2022/01/30 11:46:51;;;;;;;35.75;6.82;;;7.50;79.10;;;;;;5095073;28;20080;-85
2022/01/30 11:49:18;;;;;;;26.40;6.50;;;7.50;79.40;;;;;;5094793;28;20047;-78
2022/01/30 11:51:51;;;;;;;31.23;6.65;;;7.60;80.10;;;;;;5094999;28;20058;-75
2022/01/30 11:54:37;;;;;;;33.93;6.87;;;7.70;79.40;;;;;;5127744;27;20055;-76
2022/01/30 11:57:29;;;;;;;35.78;7.78;;;7.80;79.80;;;;;;5094377;28;20347;-75
2022/01/30 11:59:57;;;;;;;40.67;8.48;;;7.90;80.60;;;;;;5091414;28;20056;-74
2022/01/30 12:02:24;;;;;;;38.53;7.95;;;8.00;80.60;;;;;;5094297;28;20174;-74
2022/01/30 12:05:02;;;;;;;31.17;6.87;;;8.00;80.00;;;;;;5093768;28;20048;-74
2022/01/30 12:07:36;;;;;;;39.70;6.50;;;8.00;80.20;;;;;;5094154;28;20282;-75
2022/01/30 12:10:25;;;;;;;38.20;8.33;;;8.00;78.50;;;;;;5094445;28;20373;-75
2022/01/30 12:12:59;;;;;;;29.77;6.10;;;8.00;79.40;;;;;;5090889;28;20290;-76
2022/01/30 12:15:37;;;;;;;29.13;7.63;;;8.10;80.00;;;;;;5093687;28;20369;-76
2022/01/30 12:18:07;;;;;;;32.70;6.77;;;8.10;77.10;;;;;;5094303;28;20282;-75
2022/01/30 12:21:00;;;;;;;35.93;8.37;;;8.10;79.00;;;;;;5093960;28;20365;-72
2022/01/30 12:23:30;;;;;;;37.67;8.07;;;8.10;78.70;;;;;;5093992;28;20277;-74
2022/01/30 12:26:06;;;;;;;38.23;7.87;;;8.00;79.20;;;;;;5094383;28;20278;-75
2022/01/30 12:28:39;;;;;;;45.00;8.73;;;8.00;78.40;;;;;;5093920;28;20302;-74
2022/01/30 12:31:26;;;;;;;33.03;7.47;;;8.00;79.80;;;;;;5092825;28;20300;-75
2022/01/30 12:34:04;;;;;;;33.37;7.20;;;8.00;79.10;;;;;;5093258;28;20608;-74
2022/01/30 12:36:41;;;;;;;39.83;7.67;;;8.00;79.00;;;;;;5093914;28;20373;-75
2022/01/30 12:39:13;;;;;;;39.97;7.67;;;8.00;79.00;;;;;;5093038;28;20290;-75
2022/01/30 12:41:40;;;;;;;38.73;7.00;;;8.00;79.30;;;;;;5093694;28;20296;-76
2022/01/30 12:44:08;;;;;;;32.80;6.50;;;8.00;79.00;;;;;;5093742;28;20274;-75
2022/01/30 12:46:49;;;;;;;34.43;6.80;;;8.10;78.60;;;;;;5075545;28;21180;-74
2022/01/30 12:49:17;;;;;;;29.77;6.13;;;8.10;78.50;;;;;;5093658;28;20274;-83
2022/01/30 12:52:06;;;;;;;34.27;7.27;;;8.00;77.70;;;;;;5076017;28;20282;-74
2022/01/30 12:54:37;;;;;;;33.13;7.53;;;7.90;78.00;;;;;;5093364;28;20278;-76
2022/01/30 12:57:04;;;;;;;27.67;7.37;;;7.80;77.80;;;;;;5093897;28;20278;-75
2022/01/30 12:59:30;;;;;;;33.27;6.47;;;7.70;77.20;;;;;;5091970;28;20354;-75
2022/01/30 13:02:07;;;;;;;36.60;7.70;;;7.70;77.80;;;;;;5093585;28;20672;-74
2022/01/30 13:04:34;;;;;;;40.37;6.27;;;7.70;78.00;;;;;;5093225;28;20349;-75
2022/01/30 13:06:59;;;;;;;38.10;7.10;;;7.70;77.40;;;;;;5093378;28;20300;-71
2022/01/30 13:09:27;;;;;;;35.07;6.70;;;7.80;78.30;;;;;;5093150;28;20282;-75
2022/01/30 13:12:00;;;;;;;35.53;8.27;;;7.80;77.60;;;;;;5093283;28;20047;-79
2022/01/30 13:14:34;;;;;;;33.20;7.17;;;7.70;76.70;;;;;;5092717;28;20780;-75
2022/01/30 13:17:00;;;;;;;27.67;6.15;;;7.70;77.80;;;;;;5091797;28;20289;-76
2022/01/30 13:19:28;;;;;;;33.63;6.67;;;7.70;77.90;;;;;;5093274;28;20040;-75
2022/01/30 13:21:55;;;;;;;34.03;7.18;;;7.70;77.60;;;;;;5093349;28;20048;-75
2022/01/30 13:24:21;;;;;;;28.92;6.72;;;7.80;78.30;;;;;;5092801;28;20043;-76
2022/01/30 13:26:54;;;;;;;33.03;7.33;;;7.80;78.40;;;;;;5092582;28;20118;-75
2022/01/30 13:29:21;;;;;;;40.30;8.05;;;7.80;78.30;;;;;;5092749;28;20051;-76
2022/01/30 13:31:53;;;;;;;37.57;7.63;;;7.90;78.80;;;;;;5092751;28;20513;-77
2022/01/30 13:34:22;;;;;;;40.60;7.23;;;7.90;78.70;;;;;;5093111;28;20475;-75
2022/01/30 13:36:54;;;;;;;41.50;6.83;;;7.90;78.80;;;;;;5093208;28;20279;-76
2022/01/30 13:39:27;;;;;;;34.93;6.87;;;7.90;79.80;;;;;;5091461;28;20334;-79
2022/01/30 13:42:12;;;;;;;33.70;6.80;;;7.90;80.10;;;;;;5093217;28;20278;-74
2022/01/30 13:45:03;;;;;;;39.30;8.63;;;7.90;80.20;;;;;;5092738;28;20736;-74
2022/01/30 13:47:29;;;;;;;34.17;7.63;;;8.00;80.70;;;;;;5090574;28;20075;-75
2022/01/30 13:49:55;;;;;;;36.57;6.50;;;8.00;80.70;;;;;;5084075;28;20348;-74
2022/01/30 13:52:20;;;;;;;39.70;7.80;;;8.00;80.70;;;;;;5091505;28;20282;-76
2022/01/30 13:55:01;;;;;;;30.67;6.47;;;8.00;80.40;;;;;;5091840;28;20480;-75
2022/01/30 13:57:35;;;;;;;41.97;8.13;;;8.00;80.50;;;;;;5092701;28;20106;-75
2022/01/30 14:00:08;;;;;;;34.87;6.93;;;8.00;80.60;;;;;;5092369;28;20915;-75
2022/01/30 14:02:34;;;;;;;40.57;7.63;;;8.00;80.30;;;;;;5092535;28;20802;-75
2022/01/30 14:05:23;;;;;;;34.67;6.80;;;7.90;80.40;;;;;;5092698;28;20316;-74
2022/01/30 14:07:50;;;;;;;35.73;8.00;;;7.90;79.70;;;;;;5092896;28;20285;-75
2022/01/30 14:10:17;;;;;;;35.60;7.00;;;7.90;79.80;;;;;;5091662;28;20618;-75
2022/01/30 14:12:43;;;;;;;36.90;7.30;;;7.80;79.60;;;;;;5091151;28;20830;-75
2022/01/30 14:15:11;;;;;;;36.00;6.30;;;7.80;80.10;;;;;;5092253;28;20278;-73
2022/01/30 14:17:41;;;;;;;31.23;7.10;;;7.80;78.30;;;;;;5091449;28;20056;-74
2022/01/30 14:20:10;;;;;;;24.57;6.73;;;7.80;78.40;;;;;;5091368;28;20324;-74
2022/01/30 14:22:36;;;;;;;31.33;5.82;;;7.90;78.30;;;;;;5092269;28;20286;-75
2022/01/30 14:25:11;;;;;;;31.80;6.80;;;7.90;78.30;;;;;;5091468;28;20480;-75
2022/01/30 14:27:39;;;;;;;24.30;5.10;;;7.90;78.00;;;;;;5074785;28;20284;-75